BOX565 ZSPD-EDDP
Flight info
| Callsign | BOX565 |
|---|---|
| Flight time | N/A |
| Altitude | 25600 |
| Route | PIK81D PIKAS G330 PIMOL A593 DALIM/K0883S0840 W157 BEKDO/K0867S0810 W157 VYK G212 SOTMU/K0880S0840 B339 ASILA A575 UPREK W28 LAGEB W66 NUKTI B215 KABDO W119 OGEDI/K0906S0920 W119 GOBOK A343 RULAD/K0898F300 M610 ARBOL Z621 GENDI N147 OTBOR/N0481F300 A480 TIMGA B476 UGLEP/N0481F320 B476 METKA L88 NIJAT N644 ADEKI DCT BADIR DCT LAGAS DCT NOLGA UG261 TBN UM11 CRM UL746 ODERO DCT DINRO DCT RIVOS DCT URELA DCT DOKUD DCT KARIL DCT TAKOS DCT OMIFU DCT ODLIV DCT BEFRE DCT IVQOQ T951 YAWOY YAWOY1R |
| Aircraft | B77L/H-SDE1E2E3FGHIJ2J3J4J5M1RWXY/LB1D1 |
Departure
| Time | 2026-05-04 11:12 |
|---|---|
| Airport | Shanghai Pudong International Airport (ZSPD) |
Arrival
| Time | N/A |
|---|---|
| Airport | Leipzig/Halle Airport (EDDP) |
| Time | Latitude | Longitude | Altitude | Speed | Heading |
|---|---|---|---|---|---|
| 2026-05-04 10:21 | 31.13031 | 121.78822 | 27 ft | 0 kts | 252° |
| 2026-05-04 10:57 | 31.13034 | 121.78832 | 27 ft | 4 kts | 253° |
| 2026-05-04 10:58 | 31.13041 | 121.78862 | 27 ft | 4 kts | 259° |
| 2026-05-04 10:58 | 31.13045 | 121.78893 | 26 ft | 4 kts | 268° |
| 2026-05-04 10:58 | 31.13042 | 121.78924 | 27 ft | 4 kts | 290° |
| 2026-05-04 10:58 | 31.13030 | 121.78944 | 27 ft | 2 kts | 341° |
| 2026-05-04 10:59 | 31.13030 | 121.78945 | 27 ft | 1 kts | 342° |
| 2026-05-04 11:01 | 31.13072 | 121.78928 | 27 ft | 11 kts | 342° |
| 2026-05-04 11:02 | 31.13137 | 121.78905 | 27 ft | 8 kts | 348° |
| 2026-05-04 11:02 | 31.13179 | 121.78933 | 26 ft | 8 kts | 56° |
| 2026-05-04 11:05 | 31.14582 | 121.78467 | 27 ft | 10 kts | 345° |
| 2026-05-04 11:06 | 31.14631 | 121.78486 | 27 ft | 3 kts | 52° |
| 2026-05-04 11:06 | 31.14654 | 121.78550 | 31 ft | 20 kts | 69° |
| 2026-05-04 11:06 | 31.14713 | 121.78756 | 27 ft | 28 kts | 72° |
| 2026-05-04 11:06 | 31.14759 | 121.78922 | 27 ft | 20 kts | 72° |
| 2026-05-04 11:08 | 31.15425 | 121.79082 | 27 ft | 24 kts | 341° |
| 2026-05-04 11:10 | 31.16135 | 121.78707 | 27 ft | 7 kts | 252° |
| 2026-05-04 11:12 | 31.12066 | 121.80106 | 1204 ft | 204 kts | 162° |
| 2026-05-04 11:12 | 31.10693 | 121.80578 | 2001 ft | 207 kts | 163° |
| 2026-05-04 11:12 | 31.09261 | 121.81057 | 2270 ft | 227 kts | 164° |
| 2026-05-04 11:12 | 31.07691 | 121.81555 | 2688 ft | 240 kts | 165° |
| 2026-05-04 11:13 | 31.06047 | 121.82077 | 3243 ft | 250 kts | 165° |
| 2026-05-04 11:13 | 31.04333 | 121.82617 | 3815 ft | 260 kts | 165° |
| 2026-05-04 11:13 | 31.02556 | 121.83079 | 4395 ft | 266 kts | 178° |
| 2026-05-04 11:13 | 31.00730 | 121.82745 | 5012 ft | 269 kts | 205° |
| 2026-05-04 11:14 | 30.99182 | 121.81540 | 5686 ft | 270 kts | 225° |
| 2026-05-04 11:14 | 30.98143 | 121.79740 | 5932 ft | 270 kts | 252° |
| 2026-05-04 11:14 | 30.97626 | 121.77632 | 5943 ft | 272 kts | 255° |
| 2026-05-04 11:16 | 30.97905 | 121.62391 | 8303 ft | 290 kts | 283° |
| 2026-05-04 11:16 | 30.98328 | 121.60087 | 9055 ft | 292 kts | 283° |
| 2026-05-04 11:16 | 30.98750 | 121.57792 | 9757 ft | 295 kts | 283° |
| 2026-05-04 11:17 | 30.99184 | 121.55436 | 10405 ft | 301 kts | 283° |
| 2026-05-04 11:17 | 30.99640 | 121.52964 | 10620 ft | 323 kts | 283° |
| 2026-05-04 11:19 | 31.03379 | 121.32606 | 14663 ft | 385 kts | 282° |
| 2026-05-04 11:19 | 31.03941 | 121.29531 | 15357 ft | 389 kts | 282° |
| 2026-05-04 11:19 | 31.04507 | 121.26433 | 16030 ft | 392 kts | 282° |
| 2026-05-04 11:19 | 31.05076 | 121.23317 | 16697 ft | 395 kts | 282° |
| 2026-05-04 11:20 | 31.05652 | 121.20171 | 17339 ft | 396 kts | 283° |
| 2026-05-04 11:20 | 31.06609 | 121.17156 | 17712 ft | 403 kts | 301° |
| 2026-05-04 11:20 | 31.08464 | 121.14680 | 18225 ft | 411 kts | 320° |
| 2026-05-04 11:20 | 31.10920 | 121.12961 | 18869 ft | 415 kts | 335° |
| 2026-05-04 11:22 | 31.31856 | 121.11193 | 22281 ft | 447 kts | 354° |
| 2026-05-04 11:22 | 31.34980 | 121.11010 | 22735 ft | 451 kts | 354° |
| 2026-05-04 11:23 | 31.38091 | 121.11015 | 23182 ft | 457 kts | 0° |
| 2026-05-04 11:23 | 31.41282 | 121.11289 | 23636 ft | 462 kts | 1° |
| 2026-05-04 11:24 | 31.59085 | 121.04172 | 25923 ft | 464 kts | 332° |
| 2026-05-04 11:25 | 31.61996 | 121.02621 | 26318 ft | 467 kts | 332° |
| 2026-05-04 11:25 | 31.64963 | 121.01046 | 26707 ft | 471 kts | 331° |
| 2026-05-04 11:25 | 31.67957 | 120.99457 | 27085 ft | 474 kts | 331° |
| 2026-05-04 11:26 | 31.73990 | 120.96246 | 27867 ft | 478 kts | 331° |
| 2026-05-04 11:27 | 31.95486 | 120.84741 | 30210 ft | 489 kts | 329° |
| 2026-05-04 11:28 | 32.01665 | 120.81420 | 30172 ft | 486 kts | 329° |
| 2026-05-04 11:28 | 32.07790 | 120.78114 | 30171 ft | 483 kts | 330° |
| 2026-05-04 11:29 | 32.13591 | 120.74384 | 30160 ft | 467 kts | 311° |
| 2026-05-04 11:29 | 32.15593 | 120.71488 | 30179 ft | 460 kts | 295° |
| 2026-05-04 11:29 | 32.16923 | 120.68071 | 30165 ft | 458 kts | 284° |
| 2026-05-04 11:31 | 32.19271 | 120.42235 | 30161 ft | 451 kts | 273° |
| 2026-05-04 11:33 | 32.21369 | 120.16741 | 30159 ft | 445 kts | 273° |
| 2026-05-04 11:33 | 32.21940 | 120.09477 | 30152 ft | 445 kts | 273° |
| 2026-05-04 11:34 | 32.22523 | 120.02255 | 30155 ft | 445 kts | 272° |
| 2026-05-04 11:34 | 32.23106 | 119.95000 | 30153 ft | 443 kts | 273° |
| 2026-05-04 11:35 | 32.23699 | 119.87760 | 30154 ft | 443 kts | 273° |
| 2026-05-04 11:35 | 32.24389 | 119.80533 | 30141 ft | 446 kts | 282° |
| 2026-05-04 11:36 | 32.25588 | 119.77125 | 30159 ft | 455 kts | 296° |
| 2026-05-04 11:36 | 32.27405 | 119.74084 | 30155 ft | 464 kts | 306° |
| 2026-05-04 11:36 | 32.29796 | 119.71469 | 30151 ft | 473 kts | 318° |
| 2026-05-04 11:36 | 32.32514 | 119.69247 | 30158 ft | 477 kts | 320° |
| 2026-05-04 11:37 | 32.37996 | 119.64765 | 30149 ft | 480 kts | 319° |
| 2026-05-04 11:37 | 32.43427 | 119.60155 | 30146 ft | 480 kts | 319° |
| 2026-05-04 11:38 | 32.48792 | 119.55556 | 30145 ft | 478 kts | 319° |
| 2026-05-04 11:38 | 32.54139 | 119.50929 | 30155 ft | 475 kts | 319° |
| 2026-05-04 11:39 | 32.59471 | 119.46324 | 30152 ft | 473 kts | 319° |
| 2026-05-04 11:41 | 32.77977 | 119.30245 | 30161 ft | 474 kts | 320° |
| 2026-05-04 11:41 | 32.83311 | 119.25605 | 30153 ft | 475 kts | 320° |
| 2026-05-04 11:42 | 32.88651 | 119.20951 | 30157 ft | 476 kts | 320° |
| 2026-05-04 11:42 | 32.93994 | 119.16280 | 30154 ft | 477 kts | 320° |
| 2026-05-04 11:43 | 32.99327 | 119.11659 | 30145 ft | 477 kts | 321° |
| 2026-05-04 11:43 | 33.04699 | 119.07021 | 30146 ft | 476 kts | 321° |
| 2026-05-04 11:44 | 33.10047 | 119.02387 | 30145 ft | 475 kts | 321° |
| 2026-05-04 11:44 | 33.15390 | 118.97751 | 30146 ft | 474 kts | 321° |
| 2026-05-04 11:45 | 33.20686 | 118.93147 | 30144 ft | 474 kts | 321° |
| 2026-05-04 11:45 | 33.26019 | 118.88516 | 30147 ft | 474 kts | 321° |
| 2026-05-04 11:46 | 33.31344 | 118.83888 | 30145 ft | 474 kts | 321° |
| 2026-05-04 11:46 | 33.36694 | 118.79266 | 30128 ft | 474 kts | 321° |
| 2026-05-04 11:47 | 33.42047 | 118.74638 | 30116 ft | 475 kts | 321° |
| 2026-05-04 11:47 | 33.47361 | 118.70029 | 30118 ft | 475 kts | 321° |
| 2026-05-04 11:48 | 33.52714 | 118.65395 | 30119 ft | 474 kts | 322° |
| 2026-05-04 11:48 | 33.58059 | 118.60768 | 30119 ft | 474 kts | 322° |
| 2026-05-04 11:49 | 33.63402 | 118.56130 | 30114 ft | 474 kts | 322° |
| 2026-05-04 11:49 | 33.68738 | 118.51490 | 30119 ft | 473 kts | 322° |
| 2026-05-04 11:50 | 33.74034 | 118.46878 | 30120 ft | 473 kts | 322° |
| 2026-05-04 11:50 | 33.79362 | 118.42230 | 30119 ft | 473 kts | 322° |
| 2026-05-04 11:51 | 33.84687 | 118.37577 | 30120 ft | 473 kts | 322° |
| 2026-05-04 11:51 | 33.90003 | 118.32924 | 30111 ft | 473 kts | 322° |
| 2026-05-04 11:52 | 33.95288 | 118.28292 | 30100 ft | 473 kts | 322° |
| 2026-05-04 11:52 | 34.00610 | 118.23636 | 30114 ft | 473 kts | 322° |
| 2026-05-04 11:53 | 34.05938 | 118.18991 | 30114 ft | 472 kts | 322° |
| 2026-05-04 11:53 | 34.11261 | 118.14336 | 30109 ft | 472 kts | 322° |
| 2026-05-04 11:55 | 34.33466 | 117.97668 | 30113 ft | 477 kts | 341° |
| 2026-05-04 11:56 | 34.39798 | 117.95455 | 30111 ft | 477 kts | 342° |
| 2026-05-04 11:56 | 34.46172 | 117.93242 | 30115 ft | 477 kts | 342° |
| 2026-05-04 11:57 | 34.52543 | 117.90983 | 30104 ft | 477 kts | 342° |
| 2026-05-04 11:57 | 34.58911 | 117.88702 | 30111 ft | 477 kts | 342° |
| 2026-05-04 11:58 | 34.65236 | 117.86435 | 30114 ft | 477 kts | 342° |
| 2026-05-04 11:58 | 34.71599 | 117.84151 | 30110 ft | 476 kts | 342° |
| 2026-05-04 11:59 | 34.77958 | 117.81865 | 30111 ft | 476 kts | 342° |
| 2026-05-04 11:59 | 34.84310 | 117.79585 | 30094 ft | 476 kts | 342° |
| 2026-05-04 12:00 | 34.90667 | 117.77300 | 30099 ft | 476 kts | 341° |
| 2026-05-04 12:00 | 34.97009 | 117.74984 | 30101 ft | 476 kts | 341° |
| 2026-05-04 12:01 | 35.03310 | 117.72684 | 30102 ft | 476 kts | 342° |
| 2026-05-04 12:02 | 35.25442 | 117.64566 | 30102 ft | 475 kts | 341° |
| 2026-05-04 12:03 | 35.31780 | 117.62228 | 30096 ft | 476 kts | 341° |
| 2026-05-04 12:03 | 35.38117 | 117.59889 | 30100 ft | 476 kts | 341° |
| 2026-05-04 12:04 | 35.44454 | 117.57546 | 30099 ft | 476 kts | 341° |
| 2026-05-04 12:04 | 35.50749 | 117.55216 | 30097 ft | 475 kts | 342° |
| 2026-05-04 12:05 | 35.57078 | 117.52867 | 30093 ft | 476 kts | 341° |
| 2026-05-04 12:05 | 35.63413 | 117.50512 | 30090 ft | 476 kts | 341° |
| 2026-05-04 12:06 | 35.69747 | 117.48154 | 30090 ft | 475 kts | 341° |
| 2026-05-04 12:06 | 35.76076 | 117.45795 | 30091 ft | 475 kts | 341° |
| 2026-05-04 12:07 | 35.82365 | 117.43447 | 30084 ft | 475 kts | 341° |
| 2026-05-04 12:07 | 35.88691 | 117.41080 | 30078 ft | 475 kts | 341° |
| 2026-05-04 12:08 | 35.95023 | 117.38706 | 30073 ft | 476 kts | 341° |
| 2026-05-04 12:08 | 36.01355 | 117.36332 | 30082 ft | 475 kts | 342° |
| 2026-05-04 12:09 | 36.07642 | 117.34002 | 30088 ft | 474 kts | 342° |
| 2026-05-04 12:09 | 36.13964 | 117.31666 | 30080 ft | 474 kts | 342° |
| 2026-05-04 12:10 | 36.20285 | 117.29322 | 30060 ft | 474 kts | 342° |
| 2026-05-04 12:10 | 36.26593 | 117.26975 | 30047 ft | 474 kts | 342° |
| 2026-05-04 12:11 | 36.32905 | 117.24622 | 30042 ft | 473 kts | 342° |
| 2026-05-04 12:11 | 36.39170 | 117.22284 | 30045 ft | 473 kts | 342° |
| 2026-05-04 12:12 | 36.45362 | 117.19556 | 30047 ft | 472 kts | 336° |
| 2026-05-04 12:12 | 36.51409 | 117.16365 | 30045 ft | 472 kts | 336° |
| 2026-05-04 12:14 | 36.75643 | 117.03672 | 30026 ft | 474 kts | 336° |
| 2026-05-04 12:15 | 36.80689 | 117.01028 | 30027 ft | 474 kts | 336° |
| 2026-05-04 12:15 | 36.87746 | 116.97326 | 30027 ft | 473 kts | 336° |
| 2026-05-04 12:16 | 36.93815 | 116.94135 | 30029 ft | 473 kts | 336° |
| 2026-05-04 12:16 | 36.98860 | 116.91478 | 30020 ft | 473 kts | 336° |
| 2026-05-04 12:17 | 37.04922 | 116.88281 | 30026 ft | 473 kts | 336° |
| 2026-05-04 12:17 | 37.10988 | 116.85075 | 30017 ft | 473 kts | 336° |
| 2026-05-04 12:18 | 37.17054 | 116.81865 | 30015 ft | 473 kts | 336° |
| 2026-05-04 12:18 | 37.23116 | 116.78785 | 30021 ft | 473 kts | 341° |
| 2026-05-04 12:19 | 37.29430 | 116.76413 | 30020 ft | 474 kts | 343° |
| 2026-05-04 12:19 | 37.35752 | 116.74084 | 30001 ft | 474 kts | 343° |
| 2026-05-04 12:20 | 37.42075 | 116.71714 | 30007 ft | 474 kts | 343° |
| 2026-05-04 12:20 | 37.48392 | 116.69321 | 30013 ft | 474 kts | 343° |
| 2026-05-04 12:21 | 37.54662 | 116.66938 | 30001 ft | 474 kts | 343° |
| 2026-05-04 12:21 | 37.60977 | 116.64536 | 29995 ft | 474 kts | 343° |
| 2026-05-04 12:22 | 37.67293 | 116.62130 | 30000 ft | 474 kts | 343° |
| 2026-05-04 12:22 | 37.73602 | 116.59723 | 29998 ft | 474 kts | 343° |
| 2026-05-04 12:23 | 37.79875 | 116.57324 | 30000 ft | 474 kts | 343° |
| 2026-05-04 12:23 | 37.86191 | 116.54905 | 29997 ft | 474 kts | 343° |
| 2026-05-04 12:24 | 37.92504 | 116.52480 | 29991 ft | 474 kts | 342° |
| 2026-05-04 12:24 | 37.98561 | 116.49216 | 29990 ft | 474 kts | 332° |
| 2026-05-04 12:25 | 38.04053 | 116.44632 | 29997 ft | 473 kts | 323° |
| 2026-05-04 12:25 | 38.09324 | 116.39703 | 29990 ft | 474 kts | 324° |
| 2026-05-04 12:26 | 38.14670 | 116.34796 | 29978 ft | 474 kts | 324° |
| 2026-05-04 12:26 | 38.20009 | 116.29860 | 29970 ft | 475 kts | 324° |
| 2026-05-04 12:27 | 38.25721 | 116.26029 | 29981 ft | 470 kts | 348° |
| 2026-05-04 12:27 | 38.28970 | 116.25657 | 29974 ft | 472 kts | 2° |
| 2026-05-04 12:27 | 38.32217 | 116.26299 | 29970 ft | 472 kts | 14° |
| 2026-05-04 12:28 | 38.38545 | 116.28632 | 29967 ft | 475 kts | 15° |
| 2026-05-04 12:28 | 38.44933 | 116.30928 | 29968 ft | 478 kts | 14° |
| 2026-05-04 12:29 | 38.51323 | 116.33144 | 29964 ft | 480 kts | 14° |
| 2026-05-04 12:29 | 38.57767 | 116.35364 | 29959 ft | 479 kts | 14° |
| 2026-05-04 12:30 | 38.64193 | 116.37588 | 29960 ft | 478 kts | 14° |
| 2026-05-04 12:30 | 38.70606 | 116.39834 | 29960 ft | 477 kts | 14° |
| 2026-05-04 12:31 | 38.76957 | 116.42079 | 29963 ft | 476 kts | 14° |
| 2026-05-04 12:31 | 38.83340 | 116.44337 | 29970 ft | 476 kts | 14° |
| 2026-05-04 12:32 | 38.92908 | 116.47728 | 29971 ft | 475 kts | 14° |
| 2026-05-04 12:33 | 38.99281 | 116.49991 | 29970 ft | 476 kts | 14° |
| 2026-05-04 12:33 | 39.05667 | 116.52262 | 29971 ft | 476 kts | 14° |
| 2026-05-04 12:34 | 39.12014 | 116.54526 | 29970 ft | 477 kts | 14° |
| 2026-05-04 12:34 | 39.18406 | 116.56809 | 29967 ft | 477 kts | 15° |
| 2026-05-04 12:35 | 39.24705 | 116.59524 | 29962 ft | 478 kts | 19° |
| 2026-05-04 12:35 | 39.30943 | 116.62462 | 29961 ft | 478 kts | 19° |
| 2026-05-04 12:36 | 39.37151 | 116.65382 | 29961 ft | 478 kts | 19° |
| 2026-05-04 12:36 | 39.43409 | 116.68301 | 29961 ft | 478 kts | 19° |
| 2026-05-04 12:37 | 39.49668 | 116.71219 | 29961 ft | 478 kts | 19° |
| 2026-05-04 12:37 | 39.55927 | 116.74141 | 29961 ft | 478 kts | 19° |
| 2026-05-04 12:38 | 39.62135 | 116.77049 | 29960 ft | 478 kts | 19° |
| 2026-05-04 12:38 | 39.68390 | 116.79983 | 29969 ft | 477 kts | 19° |
| 2026-05-04 12:39 | 39.74629 | 116.82916 | 29968 ft | 476 kts | 18° |
| 2026-05-04 12:39 | 39.81074 | 116.84609 | 29976 ft | 473 kts | 2° |
| 2026-05-04 12:40 | 39.87607 | 116.84036 | 29983 ft | 471 kts | 350° |
| 2026-05-04 12:40 | 39.94027 | 116.82657 | 29968 ft | 471 kts | 350° |
| 2026-05-04 12:41 | 40.00512 | 116.81310 | 29963 ft | 472 kts | 351° |
| 2026-05-04 12:41 | 40.07010 | 116.80008 | 29963 ft | 472 kts | 351° |
| 2026-05-04 12:42 | 40.13509 | 116.78711 | 29961 ft | 472 kts | 351° |
| 2026-05-04 12:42 | 40.20005 | 116.77412 | 29961 ft | 472 kts | 351° |
| 2026-05-04 12:43 | 40.26448 | 116.76118 | 29960 ft | 472 kts | 351° |
| 2026-05-04 12:43 | 40.32933 | 116.74755 | 29955 ft | 472 kts | 348° |
| 2026-05-04 12:44 | 40.39234 | 116.72393 | 29960 ft | 471 kts | 342° |
| 2026-05-04 12:44 | 40.45483 | 116.69806 | 29961 ft | 470 kts | 342° |
| 2026-05-04 12:45 | 40.51696 | 116.67276 | 29965 ft | 470 kts | 342° |
| 2026-05-04 12:45 | 40.57957 | 116.64747 | 29964 ft | 471 kts | 342° |
| 2026-05-04 12:46 | 40.64217 | 116.62215 | 29961 ft | 471 kts | 342° |
| 2026-05-04 12:46 | 40.70485 | 116.59675 | 29963 ft | 471 kts | 342° |
| 2026-05-04 12:47 | 40.76728 | 116.57245 | 29957 ft | 471 kts | 346° |
| 2026-05-04 12:47 | 40.83218 | 116.56075 | 29964 ft | 471 kts | 355° |
| 2026-05-04 12:48 | 40.89761 | 116.55539 | 29963 ft | 472 kts | 355° |
| 2026-05-04 12:48 | 40.96310 | 116.54955 | 29959 ft | 472 kts | 355° |
| 2026-05-04 12:49 | 41.02813 | 116.54339 | 29963 ft | 472 kts | 355° |
| 2026-05-04 12:49 | 41.09360 | 116.53714 | 29959 ft | 472 kts | 355° |
| 2026-05-04 12:50 | 41.15905 | 116.53092 | 29965 ft | 471 kts | 355° |
| 2026-05-04 12:50 | 41.22399 | 116.52061 | 29952 ft | 469 kts | 345° |
| 2026-05-04 12:51 | 41.28491 | 116.49050 | 29958 ft | 468 kts | 332° |
| 2026-05-04 12:51 | 41.34053 | 116.44668 | 29968 ft | 468 kts | 328° |
| 2026-05-04 12:52 | 41.39625 | 116.40179 | 29958 ft | 468 kts | 329° |
| 2026-05-04 12:52 | 41.45213 | 116.35722 | 29954 ft | 468 kts | 329° |
| 2026-05-04 12:53 | 41.50812 | 116.31281 | 29952 ft | 468 kts | 329° |
| 2026-05-04 12:53 | 41.56368 | 116.26871 | 29947 ft | 468 kts | 328° |
| 2026-05-04 12:54 | 41.61974 | 116.22408 | 29959 ft | 469 kts | 328° |
| 2026-05-04 12:54 | 41.67590 | 116.17927 | 29951 ft | 471 kts | 328° |
| 2026-05-04 12:55 | 41.73216 | 116.13432 | 29956 ft | 471 kts | 328° |
| 2026-05-04 12:55 | 41.78841 | 116.08925 | 29949 ft | 471 kts | 328° |
| 2026-05-04 12:56 | 41.84457 | 116.04416 | 29954 ft | 471 kts | 328° |
| 2026-05-04 12:56 | 41.90037 | 115.99929 | 29958 ft | 470 kts | 328° |
| 2026-05-04 12:57 | 41.95232 | 115.94690 | 30036 ft | 469 kts | 313° |
| 2026-05-04 12:57 | 41.99114 | 115.87657 | 30048 ft | 470 kts | 298° |
| 2026-05-04 12:58 | 42.02156 | 115.79932 | 29994 ft | 472 kts | 298° |
| 2026-05-04 12:58 | 42.05243 | 115.72154 | 29961 ft | 471 kts | 298° |
| 2026-05-04 12:59 | 42.08357 | 115.64400 | 29947 ft | 470 kts | 299° |
| 2026-05-04 12:59 | 42.11469 | 115.56667 | 29940 ft | 469 kts | 298° |
| 2026-05-04 13:00 | 42.14568 | 115.48945 | 29941 ft | 468 kts | 299° |
| 2026-05-04 13:00 | 42.17636 | 115.41278 | 29942 ft | 468 kts | 298° |
| 2026-05-04 13:01 | 42.20713 | 115.33565 | 29940 ft | 467 kts | 298° |
| 2026-05-04 13:01 | 42.23082 | 115.25427 | 29937 ft | 468 kts | 285° |
| 2026-05-04 13:02 | 42.24116 | 115.16747 | 29933 ft | 471 kts | 274° |
| 2026-05-04 13:02 | 42.24186 | 115.07893 | 29935 ft | 473 kts | 271° |
| 2026-05-04 13:03 | 42.24172 | 114.99073 | 29932 ft | 473 kts | 271° |
| 2026-05-04 13:03 | 42.24187 | 114.90184 | 29933 ft | 474 kts | 272° |
| 2026-05-04 13:04 | 42.24225 | 114.81303 | 29934 ft | 474 kts | 272° |
| 2026-05-04 13:04 | 42.24267 | 114.72410 | 29934 ft | 474 kts | 272° |
| 2026-05-04 13:05 | 42.24304 | 114.63518 | 29931 ft | 474 kts | 272° |
| 2026-05-04 13:05 | 42.24330 | 114.54681 | 29926 ft | 474 kts | 272° |
| 2026-05-04 13:06 | 42.24350 | 114.45781 | 29923 ft | 474 kts | 272° |
| 2026-05-04 13:06 | 42.24362 | 114.36892 | 29920 ft | 474 kts | 272° |
| 2026-05-04 13:07 | 42.24369 | 114.27995 | 29928 ft | 474 kts | 272° |
| 2026-05-04 13:07 | 42.24369 | 114.19098 | 29922 ft | 474 kts | 272° |
| 2026-05-04 13:08 | 42.24358 | 114.10271 | 29925 ft | 474 kts | 272° |
| 2026-05-04 13:08 | 42.24343 | 114.01376 | 29936 ft | 474 kts | 272° |
| 2026-05-04 13:09 | 42.24322 | 113.92480 | 29944 ft | 474 kts | 272° |
| 2026-05-04 13:09 | 42.24295 | 113.83577 | 29942 ft | 474 kts | 272° |
| 2026-05-04 13:10 | 42.24257 | 113.74735 | 29944 ft | 474 kts | 272° |
| 2026-05-04 13:10 | 42.24216 | 113.65848 | 29943 ft | 474 kts | 272° |
| 2026-05-04 13:11 | 42.24169 | 113.56956 | 29947 ft | 474 kts | 271° |
| 2026-05-04 13:11 | 42.24110 | 113.48058 | 29942 ft | 474 kts | 271° |
| 2026-05-04 13:12 | 42.24050 | 113.39217 | 29944 ft | 474 kts | 271° |
| 2026-05-04 13:12 | 42.23979 | 113.30313 | 29939 ft | 474 kts | 271° |
| 2026-05-04 13:13 | 42.23904 | 113.21422 | 29952 ft | 474 kts | 271° |
| 2026-05-04 13:13 | 42.23821 | 113.12521 | 29950 ft | 474 kts | 271° |
| 2026-05-04 13:14 | 42.23732 | 113.03676 | 29952 ft | 474 kts | 271° |
| 2026-05-04 13:14 | 42.23633 | 112.94773 | 29954 ft | 474 kts | 271° |
| 2026-05-04 13:15 | 42.23529 | 112.85870 | 29947 ft | 475 kts | 271° |
| 2026-05-04 13:15 | 42.23418 | 112.76974 | 29955 ft | 475 kts | 271° |
| 2026-05-04 13:16 | 42.23301 | 112.68124 | 29951 ft | 475 kts | 271° |
| 2026-05-04 13:16 | 42.23176 | 112.59211 | 29946 ft | 475 kts | 271° |
| 2026-05-04 13:17 | 42.23044 | 112.50297 | 29956 ft | 475 kts | 271° |
| 2026-05-04 13:17 | 42.22907 | 112.41374 | 29952 ft | 476 kts | 271° |
| 2026-05-04 13:18 | 42.22761 | 112.32455 | 29948 ft | 476 kts | 271° |
| 2026-05-04 13:18 | 42.22608 | 112.23587 | 29948 ft | 476 kts | 271° |
| 2026-05-04 13:19 | 42.22448 | 112.14657 | 29955 ft | 476 kts | 271° |
| 2026-05-04 13:19 | 42.22282 | 112.05723 | 29950 ft | 476 kts | 271° |
| 2026-05-04 13:20 | 42.22110 | 111.96788 | 29953 ft | 476 kts | 271° |
| 2026-05-04 13:20 | 42.21931 | 111.87920 | 29950 ft | 477 kts | 270° |
| 2026-05-04 13:21 | 42.21742 | 111.78986 | 29954 ft | 476 kts | 270° |
| 2026-05-04 13:21 | 42.21547 | 111.70054 | 29946 ft | 476 kts | 270° |
| 2026-05-04 13:22 | 42.21347 | 111.61127 | 29954 ft | 476 kts | 270° |
| 2026-05-04 13:22 | 42.21140 | 111.52260 | 29952 ft | 476 kts | 270° |
| 2026-05-04 13:23 | 42.20926 | 111.43349 | 29949 ft | 476 kts | 270° |
| 2026-05-04 13:23 | 42.20706 | 111.34432 | 29953 ft | 476 kts | 270° |
| 2026-05-04 13:24 | 42.20212 | 111.25533 | 29951 ft | 477 kts | 264° |
| 2026-05-04 13:24 | 42.19234 | 111.16684 | 29953 ft | 477 kts | 263° |
| 2026-05-04 13:25 | 42.17738 | 111.03476 | 29952 ft | 477 kts | 264° |
| 2026-05-04 13:25 | 42.16769 | 110.94642 | 29953 ft | 477 kts | 264° |
| 2026-05-04 13:26 | 42.15807 | 110.85803 | 29949 ft | 477 kts | 264° |
| 2026-05-04 13:26 | 42.14837 | 110.76965 | 29953 ft | 477 kts | 263° |
| 2026-05-04 13:27 | 42.13866 | 110.68185 | 29951 ft | 477 kts | 263° |
| 2026-05-04 13:27 | 42.12880 | 110.59344 | 29951 ft | 477 kts | 263° |
| 2026-05-04 13:28 | 42.11888 | 110.50511 | 29944 ft | 478 kts | 263° |
| 2026-05-04 13:28 | 42.10888 | 110.41666 | 29954 ft | 478 kts | 263° |
| 2026-05-04 13:29 | 42.09886 | 110.32879 | 29950 ft | 478 kts | 263° |
| 2026-05-04 13:29 | 42.08869 | 110.24027 | 29944 ft | 479 kts | 263° |
| 2026-05-04 13:30 | 42.07846 | 110.15172 | 29941 ft | 479 kts | 263° |
| 2026-05-04 13:30 | 42.06817 | 110.06328 | 29943 ft | 479 kts | 263° |
| 2026-05-04 13:31 | 42.05779 | 109.97475 | 29942 ft | 479 kts | 263° |
| 2026-05-04 13:31 | 42.04742 | 109.88684 | 29943 ft | 479 kts | 263° |
| 2026-05-04 13:32 | 42.03691 | 109.79837 | 29942 ft | 479 kts | 263° |
| 2026-05-04 13:32 | 42.02634 | 109.70994 | 29943 ft | 479 kts | 262° |
| 2026-05-04 13:33 | 42.01569 | 109.62155 | 29942 ft | 479 kts | 262° |
| 2026-05-04 13:33 | 42.00501 | 109.53334 | 29942 ft | 478 kts | 262° |
| 2026-05-04 13:34 | 41.99432 | 109.44573 | 29940 ft | 478 kts | 262° |
| 2026-05-04 13:34 | 41.98349 | 109.35757 | 29947 ft | 478 kts | 262° |
| 2026-05-04 13:35 | 41.96710 | 109.22528 | 29944 ft | 479 kts | 262° |
| 2026-05-04 13:36 | 41.95610 | 109.13713 | 29941 ft | 479 kts | 262° |
| 2026-05-04 13:36 | 41.94501 | 109.04887 | 29942 ft | 479 kts | 262° |
| 2026-05-04 13:37 | 41.93392 | 108.96120 | 29943 ft | 479 kts | 262° |
| 2026-05-04 13:37 | 41.92270 | 108.87298 | 29942 ft | 479 kts | 262° |
| 2026-05-04 13:38 | 41.91140 | 108.78479 | 29935 ft | 479 kts | 262° |
| 2026-05-04 13:38 | 41.90006 | 108.69681 | 29936 ft | 478 kts | 262° |
| 2026-05-04 13:39 | 41.88873 | 108.60947 | 29943 ft | 478 kts | 261° |
| 2026-05-04 13:39 | 41.87727 | 108.52169 | 29942 ft | 477 kts | 261° |
| 2026-05-04 13:40 | 41.86577 | 108.43401 | 29944 ft | 477 kts | 261° |
| 2026-05-04 13:40 | 41.85421 | 108.34640 | 29942 ft | 477 kts | 261° |
| 2026-05-04 13:41 | 41.84257 | 108.25887 | 29942 ft | 477 kts | 261° |
| 2026-05-04 13:41 | 41.83096 | 108.17204 | 29943 ft | 477 kts | 261° |
| 2026-05-04 13:42 | 41.81329 | 108.04086 | 29942 ft | 477 kts | 261° |
| 2026-05-04 13:42 | 41.80142 | 107.95348 | 29948 ft | 476 kts | 261° |
| 2026-05-04 13:43 | 41.78949 | 107.86615 | 29944 ft | 476 kts | 261° |
| 2026-05-04 13:43 | 41.77760 | 107.77952 | 29940 ft | 476 kts | 261° |
| 2026-05-04 13:44 | 41.76554 | 107.69222 | 29947 ft | 477 kts | 261° |
| 2026-05-04 13:44 | 41.75340 | 107.60490 | 29942 ft | 477 kts | 261° |
| 2026-05-04 13:45 | 41.74118 | 107.51753 | 29942 ft | 477 kts | 261° |
| 2026-05-04 13:45 | 41.72900 | 107.43074 | 29948 ft | 478 kts | 260° |
| 2026-05-04 13:46 | 41.71665 | 107.34345 | 29944 ft | 478 kts | 260° |
| 2026-05-04 13:46 | 41.70422 | 107.25609 | 29942 ft | 478 kts | 260° |
| 2026-05-04 13:47 | 41.69173 | 107.16874 | 29943 ft | 478 kts | 260° |
| 2026-05-04 13:47 | 41.67916 | 107.08139 | 29942 ft | 478 kts | 260° |
| 2026-05-04 13:48 | 41.66662 | 106.99468 | 29942 ft | 478 kts | 260° |
| 2026-05-04 13:48 | 41.65395 | 106.90753 | 29942 ft | 478 kts | 259° |
| 2026-05-04 13:49 | 41.64119 | 106.82033 | 29942 ft | 478 kts | 259° |
| 2026-05-04 13:49 | 41.62838 | 106.73315 | 29933 ft | 478 kts | 259° |
| 2026-05-04 13:50 | 41.61557 | 106.64657 | 29946 ft | 478 kts | 259° |
| 2026-05-04 13:50 | 41.60263 | 106.55951 | 29954 ft | 477 kts | 259° |
| 2026-05-04 13:51 | 41.58964 | 106.47253 | 29953 ft | 477 kts | 259° |
| 2026-05-04 13:51 | 41.57659 | 106.38570 | 29954 ft | 477 kts | 259° |
| 2026-05-04 13:52 | 41.55695 | 106.25604 | 29961 ft | 477 kts | 259° |
| 2026-05-04 13:53 | 41.54375 | 106.16923 | 29962 ft | 477 kts | 259° |
| 2026-05-04 13:53 | 41.52859 | 106.08326 | 29952 ft | 477 kts | 252° |
| 2026-05-04 13:54 | 41.49157 | 105.96008 | 29959 ft | 477 kts | 248° |
| 2026-05-04 13:55 | 41.45443 | 105.83760 | 29959 ft | 477 kts | 249° |
| 2026-05-04 13:55 | 41.41727 | 105.71450 | 29962 ft | 478 kts | 249° |
| 2026-05-04 13:56 | 41.39235 | 105.63234 | 29961 ft | 479 kts | 249° |
| 2026-05-04 13:57 | 41.35454 | 105.50989 | 29970 ft | 479 kts | 248° |
| 2026-05-04 13:58 | 41.30328 | 105.34612 | 29971 ft | 480 kts | 248° |
| 2026-05-04 13:58 | 41.26469 | 105.22311 | 29970 ft | 481 kts | 248° |
| 2026-05-04 13:59 | 41.23904 | 105.14162 | 29970 ft | 481 kts | 248° |
| 2026-05-04 14:00 | 41.20017 | 105.01859 | 29970 ft | 482 kts | 248° |
| 2026-05-04 14:00 | 41.16114 | 104.89569 | 29969 ft | 482 kts | 248° |
| 2026-05-04 14:01 | 41.13522 | 104.81432 | 29978 ft | 482 kts | 248° |
| 2026-05-04 14:02 | 41.09599 | 104.69156 | 29982 ft | 482 kts | 249° |
| 2026-05-04 14:02 | 41.07080 | 104.60917 | 29979 ft | 482 kts | 249° |
| 2026-05-04 14:03 | 41.04597 | 104.52659 | 29979 ft | 483 kts | 249° |
| 2026-05-04 14:03 | 41.02106 | 104.44475 | 29982 ft | 483 kts | 249° |
| 2026-05-04 14:04 | 40.99130 | 104.31886 | 29992 ft | 477 kts | 270° |
| 2026-05-04 14:04 | 40.99353 | 104.27521 | 29996 ft | 476 kts | 281° |
| 2026-05-04 14:04 | 41.00244 | 104.23319 | 29981 ft | 472 kts | 292° |
| 2026-05-04 14:05 | 41.03917 | 104.11147 | 29996 ft | 477 kts | 291° |
| 2026-05-04 14:06 | 41.06285 | 104.02970 | 29987 ft | 480 kts | 291° |
| 2026-05-04 14:06 | 41.08648 | 103.94697 | 29981 ft | 480 kts | 291° |
| 2026-05-04 14:07 | 41.10999 | 103.86430 | 29978 ft | 478 kts | 291° |
| 2026-05-04 14:07 | 41.13323 | 103.78242 | 29979 ft | 477 kts | 291° |
| 2026-05-04 14:08 | 41.15649 | 103.70029 | 29976 ft | 475 kts | 291° |
| 2026-05-04 14:08 | 41.17965 | 103.61817 | 29979 ft | 475 kts | 291° |
| 2026-05-04 14:09 | 41.21426 | 103.49510 | 29987 ft | 474 kts | 291° |
| 2026-05-04 14:10 | 41.24856 | 103.37245 | 29991 ft | 475 kts | 291° |
| 2026-05-04 14:10 | 41.27148 | 103.29011 | 29989 ft | 475 kts | 290° |
| 2026-05-04 14:11 | 41.29437 | 103.20775 | 29991 ft | 476 kts | 290° |
| 2026-05-04 14:11 | 41.32861 | 103.08388 | 29993 ft | 476 kts | 290° |
| 2026-05-04 14:12 | 41.35125 | 103.00173 | 29986 ft | 476 kts | 290° |
| 2026-05-04 14:13 | 41.38652 | 102.87822 | 29986 ft | 475 kts | 291° |
| 2026-05-04 14:13 | 41.41031 | 102.79618 | 29978 ft | 475 kts | 291° |
| 2026-05-04 14:14 | 41.43389 | 102.71399 | 29978 ft | 475 kts | 291° |
| 2026-05-04 14:14 | 41.46910 | 102.59140 | 29979 ft | 474 kts | 291° |
| 2026-05-04 14:15 | 41.51615 | 102.42725 | 29980 ft | 473 kts | 291° |
| 2026-05-04 14:16 | 41.55122 | 102.30412 | 29980 ft | 473 kts | 291° |
| 2026-05-04 14:17 | 41.58601 | 102.18136 | 29979 ft | 473 kts | 290° |
| 2026-05-04 14:18 | 41.62082 | 102.05793 | 29980 ft | 473 kts | 290° |
| 2026-05-04 14:19 | 41.66698 | 101.89330 | 29979 ft | 473 kts | 290° |
| 2026-05-04 14:19 | 41.68982 | 101.81141 | 29982 ft | 473 kts | 290° |
| 2026-05-04 14:20 | 41.71276 | 101.72896 | 29978 ft | 473 kts | 290° |
| 2026-05-04 14:20 | 41.73562 | 101.64648 | 29979 ft | 472 kts | 290° |
| 2026-05-04 14:21 | 41.76961 | 101.52337 | 29980 ft | 472 kts | 290° |
| 2026-05-04 14:21 | 41.79231 | 101.44082 | 29978 ft | 472 kts | 290° |
| 2026-05-04 14:22 | 41.81494 | 101.35821 | 29970 ft | 472 kts | 290° |
| 2026-05-04 14:22 | 41.83732 | 101.27550 | 29969 ft | 472 kts | 288° |
| 2026-05-04 14:23 | 41.85382 | 101.14579 | 29970 ft | 472 kts | 272° |
| 2026-05-04 14:24 | 41.85555 | 101.05851 | 29975 ft | 472 kts | 272° |
| 2026-05-04 14:24 | 41.85728 | 100.97053 | 29970 ft | 472 kts | 272° |
| 2026-05-04 14:25 | 41.85920 | 100.88260 | 29970 ft | 471 kts | 272° |
| 2026-05-04 14:25 | 41.86209 | 100.75142 | 29971 ft | 471 kts | 272° |
| 2026-05-04 14:26 | 41.86396 | 100.66376 | 29970 ft | 470 kts | 272° |
| 2026-05-04 14:26 | 41.86575 | 100.57610 | 29970 ft | 470 kts | 272° |
| 2026-05-04 14:27 | 41.86746 | 100.48854 | 29970 ft | 469 kts | 272° |
| 2026-05-04 14:27 | 41.86910 | 100.40107 | 29970 ft | 469 kts | 272° |
| 2026-05-04 14:28 | 41.87068 | 100.31428 | 29971 ft | 468 kts | 272° |
| 2026-05-04 14:28 | 41.87220 | 100.22708 | 29970 ft | 468 kts | 272° |
| 2026-05-04 14:29 | 41.87505 | 100.05252 | 29970 ft | 468 kts | 272° |
| 2026-05-04 14:30 | 41.87635 | 99.96586 | 29970 ft | 468 kts | 272° |
| 2026-05-04 14:31 | 41.87819 | 99.83500 | 29969 ft | 468 kts | 272° |
| 2026-05-04 14:32 | 41.88044 | 99.66051 | 29971 ft | 468 kts | 272° |
| 2026-05-04 14:32 | 41.88144 | 99.57371 | 29970 ft | 468 kts | 272° |
| 2026-05-04 14:33 | 41.88240 | 99.48629 | 29970 ft | 469 kts | 272° |
| 2026-05-04 14:33 | 41.88329 | 99.39881 | 29968 ft | 469 kts | 272° |
| 2026-05-04 14:34 | 41.88412 | 99.31130 | 29969 ft | 469 kts | 272° |
| 2026-05-04 14:34 | 41.88488 | 99.22441 | 29971 ft | 469 kts | 272° |
| 2026-05-04 14:35 | 41.88556 | 99.13680 | 29971 ft | 470 kts | 272° |
| 2026-05-04 14:35 | 41.88618 | 99.04914 | 29971 ft | 470 kts | 272° |
| 2026-05-04 14:36 | 41.88675 | 98.96145 | 29970 ft | 470 kts | 272° |
| 2026-05-04 14:36 | 41.88724 | 98.87441 | 29971 ft | 470 kts | 272° |
| 2026-05-04 14:37 | 41.88767 | 98.78663 | 29971 ft | 470 kts | 272° |
| 2026-05-04 14:37 | 41.88803 | 98.69883 | 29969 ft | 471 kts | 272° |
| 2026-05-04 14:38 | 41.88832 | 98.61101 | 29971 ft | 471 kts | 272° |
| 2026-05-04 14:38 | 41.88853 | 98.52374 | 29971 ft | 471 kts | 272° |
| 2026-05-04 14:39 | 41.88869 | 98.43599 | 29970 ft | 471 kts | 272° |
| 2026-05-04 14:39 | 41.88879 | 98.34818 | 29970 ft | 470 kts | 272° |
| 2026-05-04 14:40 | 41.88881 | 98.21647 | 29971 ft | 470 kts | 271° |
| 2026-05-04 14:40 | 41.88872 | 98.12928 | 29968 ft | 470 kts | 271° |
| 2026-05-04 14:41 | 41.88858 | 98.04152 | 29973 ft | 470 kts | 271° |
| 2026-05-04 14:42 | 41.88813 | 97.86606 | 29972 ft | 470 kts | 271° |
| 2026-05-04 14:42 | 41.88777 | 97.77823 | 29971 ft | 471 kts | 271° |
| 2026-05-04 14:43 | 41.88737 | 97.69096 | 29971 ft | 470 kts | 271° |
| 2026-05-04 14:43 | 41.88690 | 97.60320 | 29980 ft | 470 kts | 271° |
| 2026-05-04 14:44 | 41.88636 | 97.51544 | 29980 ft | 470 kts | 271° |
| 2026-05-04 14:44 | 41.88586 | 97.44253 | 29979 ft | 470 kts | 271° |
| 2026-05-04 14:45 | 41.88508 | 97.34052 | 29980 ft | 470 kts | 271° |
| 2026-05-04 14:45 | 41.88434 | 97.25272 | 29980 ft | 470 kts | 271° |
| 2026-05-04 14:46 | 41.88367 | 97.17981 | 29980 ft | 471 kts | 271° |
| 2026-05-04 14:46 | 41.88280 | 97.09197 | 29979 ft | 471 kts | 270° |
| 2026-05-04 14:47 | 41.88187 | 97.00413 | 29980 ft | 471 kts | 270° |
| 2026-05-04 14:47 | 41.88071 | 96.90210 | 29980 ft | 471 kts | 270° |
| 2026-05-04 14:48 | 41.87983 | 96.82911 | 29979 ft | 470 kts | 270° |
| 2026-05-04 14:48 | 41.87868 | 96.74145 | 29980 ft | 470 kts | 270° |
| 2026-05-04 14:49 | 41.87749 | 96.65372 | 29979 ft | 470 kts | 270° |
| 2026-05-04 14:49 | 41.87623 | 96.56603 | 29980 ft | 470 kts | 270° |
| 2026-05-04 14:50 | 41.87491 | 96.47897 | 29979 ft | 470 kts | 270° |
| 2026-05-04 14:50 | 41.87352 | 96.39137 | 29980 ft | 469 kts | 270° |
| 2026-05-04 14:51 | 41.87207 | 96.30391 | 29981 ft | 469 kts | 269° |
| 2026-05-04 14:51 | 41.87065 | 96.21636 | 29979 ft | 469 kts | 270° |
| 2026-05-04 14:52 | 41.87017 | 96.12879 | 29979 ft | 469 kts | 270° |
| 2026-05-04 14:52 | 41.86989 | 96.04124 | 29980 ft | 469 kts | 270° |
| 2026-05-04 14:53 | 41.86944 | 95.95428 | 29979 ft | 469 kts | 270° |
| 2026-05-04 14:53 | 41.86884 | 95.86686 | 29979 ft | 469 kts | 270° |
| 2026-05-04 14:54 | 41.86816 | 95.77934 | 29983 ft | 469 kts | 270° |
| 2026-05-04 14:54 | 41.86742 | 95.69178 | 29980 ft | 470 kts | 270° |
| 2026-05-04 14:55 | 41.86662 | 95.60476 | 29979 ft | 469 kts | 270° |
| 2026-05-04 14:55 | 41.86574 | 95.51718 | 29982 ft | 469 kts | 270° |
| 2026-05-04 14:56 | 41.86480 | 95.42970 | 29979 ft | 470 kts | 270° |
| 2026-05-04 14:56 | 41.86379 | 95.34212 | 29981 ft | 469 kts | 270° |
| 2026-05-04 14:57 | 41.86343 | 95.25528 | 29974 ft | 466 kts | 276° |
| 2026-05-04 14:57 | 41.86994 | 95.21278 | 29977 ft | 466 kts | 289° |
| 2026-05-04 14:57 | 41.88277 | 95.17286 | 29981 ft | 467 kts | 298° |
| 2026-05-04 14:58 | 41.90075 | 95.13654 | 29975 ft | 468 kts | 309° |
| 2026-05-04 14:58 | 41.92246 | 95.10401 | 29987 ft | 469 kts | 310° |
| 2026-05-04 14:58 | 41.96635 | 95.03885 | 29987 ft | 471 kts | 310° |
| 2026-05-04 14:59 | 42.00999 | 94.97292 | 29980 ft | 473 kts | 310° |
| 2026-05-04 15:00 | 42.07479 | 94.87357 | 29976 ft | 472 kts | 309° |
| 2026-05-04 15:00 | 42.11800 | 94.80706 | 29977 ft | 471 kts | 309° |
| 2026-05-04 15:01 | 42.18244 | 94.70751 | 29977 ft | 469 kts | 309° |
| 2026-05-04 15:01 | 42.22500 | 94.64165 | 29979 ft | 468 kts | 309° |
| 2026-05-04 15:02 | 42.26779 | 94.57529 | 29980 ft | 469 kts | 309° |
| 2026-05-04 15:02 | 42.31055 | 94.50879 | 29980 ft | 469 kts | 309° |
| 2026-05-04 15:03 | 42.35332 | 94.44215 | 29979 ft | 469 kts | 309° |
| 2026-05-04 15:03 | 42.39573 | 94.37590 | 29980 ft | 470 kts | 309° |
| 2026-05-04 15:04 | 42.43845 | 94.30901 | 29980 ft | 470 kts | 309° |
| 2026-05-04 15:04 | 42.48114 | 94.24204 | 29979 ft | 469 kts | 309° |
| 2026-05-04 15:05 | 42.52380 | 94.17493 | 29981 ft | 470 kts | 309° |
| 2026-05-04 15:05 | 42.56621 | 94.10814 | 29979 ft | 470 kts | 309° |
| 2026-05-04 15:06 | 42.60879 | 94.04085 | 29981 ft | 469 kts | 309° |
| 2026-05-04 15:07 | 42.67245 | 93.93995 | 29987 ft | 469 kts | 309° |
| 2026-05-04 15:07 | 42.71492 | 93.87254 | 29989 ft | 470 kts | 309° |
| 2026-05-04 15:08 | 42.75705 | 93.80540 | 29988 ft | 469 kts | 308° |
| 2026-05-04 15:08 | 42.79940 | 93.73776 | 29988 ft | 469 kts | 308° |
| 2026-05-04 15:09 | 42.83730 | 93.66594 | 30014 ft | 467 kts | 298° |
| 2026-05-04 15:09 | 42.86451 | 93.58582 | 30001 ft | 466 kts | 288° |
| 2026-05-04 15:10 | 42.89529 | 93.46060 | 30003 ft | 467 kts | 288° |
| 2026-05-04 15:11 | 42.92632 | 93.33465 | 30008 ft | 467 kts | 288° |
| 2026-05-04 15:11 | 42.94708 | 93.25067 | 30013 ft | 467 kts | 288° |
| 2026-05-04 15:12 | 42.96779 | 93.16676 | 30002 ft | 467 kts | 288° |
| 2026-05-04 15:12 | 42.98848 | 93.08272 | 30003 ft | 467 kts | 288° |
| 2026-05-04 15:13 | 43.00898 | 92.99921 | 30003 ft | 467 kts | 288° |
| 2026-05-04 15:13 | 43.02952 | 92.91507 | 29999 ft | 467 kts | 288° |
| 2026-05-04 15:14 | 43.05002 | 92.83091 | 30017 ft | 466 kts | 287° |
| 2026-05-04 15:14 | 43.07028 | 92.74731 | 30006 ft | 467 kts | 287° |
| 2026-05-04 15:15 | 43.09062 | 92.66306 | 30036 ft | 466 kts | 287° |
| 2026-05-04 15:15 | 43.11093 | 92.57878 | 30047 ft | 466 kts | 287° |
| 2026-05-04 15:16 | 43.14125 | 92.45215 | 30036 ft | 467 kts | 287° |
| 2026-05-04 15:17 | 43.17131 | 92.32595 | 30030 ft | 467 kts | 287° |
| 2026-05-04 15:17 | 43.20138 | 92.19903 | 30032 ft | 467 kts | 287° |
| 2026-05-04 15:18 | 43.22135 | 92.11434 | 30029 ft | 467 kts | 287° |
| 2026-05-04 15:19 | 43.25105 | 91.98775 | 30038 ft | 467 kts | 287° |
| 2026-05-04 15:19 | 43.28076 | 91.86042 | 30037 ft | 468 kts | 287° |
| 2026-05-04 15:20 | 43.30054 | 91.77522 | 30029 ft | 469 kts | 287° |
| 2026-05-04 15:20 | 43.32027 | 91.68984 | 30028 ft | 469 kts | 287° |
| 2026-05-04 15:21 | 43.33985 | 91.60497 | 30027 ft | 469 kts | 287° |
| 2026-05-04 15:22 | 43.36923 | 91.47683 | 30028 ft | 469 kts | 286° |
| 2026-05-04 15:22 | 43.39852 | 91.34838 | 30026 ft | 469 kts | 286° |
| 2026-05-04 15:23 | 43.41779 | 91.26326 | 30026 ft | 469 kts | 286° |
| 2026-05-04 15:23 | 43.43707 | 91.17739 | 30032 ft | 470 kts | 286° |
| 2026-05-04 15:24 | 43.47551 | 91.00524 | 30023 ft | 471 kts | 286° |
| 2026-05-04 15:25 | 43.49456 | 90.91948 | 30030 ft | 472 kts | 286° |
| 2026-05-04 15:26 | 43.52322 | 90.78978 | 30035 ft | 472 kts | 286° |
| 2026-05-04 15:26 | 43.55176 | 90.65988 | 30040 ft | 472 kts | 285° |
| 2026-05-04 15:27 | 43.58006 | 90.53027 | 30036 ft | 473 kts | 285° |
| 2026-05-04 15:28 | 43.60836 | 90.39980 | 30041 ft | 474 kts | 285° |
| 2026-05-04 15:29 | 43.63653 | 90.26913 | 30027 ft | 474 kts | 285° |
| 2026-05-04 15:30 | 43.70298 | 89.96472 | 30025 ft | 474 kts | 287° |
| 2026-05-04 15:31 | 43.73272 | 89.83483 | 30031 ft | 474 kts | 286° |
| 2026-05-04 15:32 | 43.78170 | 89.61697 | 30024 ft | 474 kts | 286° |
| 2026-05-04 15:34 | 43.83108 | 89.39983 | 30020 ft | 474 kts | 287° |
| 2026-05-04 15:34 | 43.86151 | 89.26931 | 30020 ft | 475 kts | 287° |
| 2026-05-04 15:35 | 43.89152 | 89.13901 | 30020 ft | 476 kts | 287° |
| 2026-05-04 15:36 | 43.92149 | 89.00794 | 30019 ft | 476 kts | 287° |
| 2026-05-04 15:36 | 43.94142 | 88.92047 | 30004 ft | 475 kts | 287° |
| 2026-05-04 15:37 | 43.96128 | 88.83295 | 30014 ft | 475 kts | 286° |
| 2026-05-04 15:37 | 43.98183 | 88.74638 | 30021 ft | 475 kts | 288° |
| 2026-05-04 15:38 | 44.00410 | 88.66004 | 30013 ft | 475 kts | 289° |
| 2026-05-04 15:38 | 44.02624 | 88.57367 | 30018 ft | 474 kts | 288° |
| 2026-05-04 15:39 | 44.04801 | 88.48730 | 30017 ft | 473 kts | 288° |
| 2026-05-04 15:40 | 44.08022 | 88.35833 | 30018 ft | 472 kts | 288° |
| 2026-05-04 15:40 | 44.10170 | 88.27194 | 30018 ft | 473 kts | 288° |
| 2026-05-04 15:41 | 44.12315 | 88.18541 | 30018 ft | 473 kts | 288° |
| 2026-05-04 15:41 | 44.14455 | 88.09882 | 30023 ft | 474 kts | 288° |
| 2026-05-04 15:42 | 44.15923 | 88.01109 | 30016 ft | 469 kts | 268° |
| 2026-05-04 15:42 | 44.15405 | 87.96629 | 30033 ft | 470 kts | 254° |
| 2026-05-04 15:42 | 44.14179 | 87.92400 | 30011 ft | 473 kts | 242° |
| 2026-05-04 15:43 | 44.10276 | 87.84999 | 30025 ft | 476 kts | 233° |
| 2026-05-04 15:43 | 44.06181 | 87.77733 | 30014 ft | 479 kts | 233° |
| 2026-05-04 15:44 | 44.02135 | 87.70372 | 30014 ft | 479 kts | 234° |
| 2026-05-04 15:44 | 43.98145 | 87.63042 | 30014 ft | 478 kts | 234° |
| 2026-05-04 15:45 | 43.94132 | 87.55689 | 30001 ft | 477 kts | 234° |
| 2026-05-04 15:45 | 43.90220 | 87.48273 | 30015 ft | 475 kts | 238° |
| 2026-05-04 15:46 | 43.86679 | 87.40540 | 30024 ft | 475 kts | 238° |
| 2026-05-04 15:46 | 43.83153 | 87.32889 | 30021 ft | 475 kts | 238° |
| 2026-05-04 15:47 | 43.79581 | 87.25201 | 30016 ft | 475 kts | 238° |
| 2026-05-04 15:47 | 43.76001 | 87.17515 | 30009 ft | 475 kts | 238° |
| 2026-05-04 15:48 | 43.72410 | 87.09838 | 30011 ft | 475 kts | 238° |
| 2026-05-04 15:48 | 43.67018 | 86.98409 | 30019 ft | 476 kts | 238° |
| 2026-05-04 15:49 | 43.63394 | 86.90751 | 30017 ft | 477 kts | 237° |
| 2026-05-04 15:49 | 43.59764 | 86.83092 | 30017 ft | 477 kts | 237° |
| 2026-05-04 15:50 | 43.56291 | 86.75396 | 30012 ft | 474 kts | 246° |
| 2026-05-04 15:50 | 43.55289 | 86.71085 | 30016 ft | 473 kts | 259° |
| 2026-05-04 15:50 | 43.54941 | 86.66580 | 30025 ft | 474 kts | 269° |
| 2026-05-04 15:51 | 43.55246 | 86.62062 | 30033 ft | 475 kts | 280° |
| 2026-05-04 15:51 | 43.55889 | 86.57592 | 30010 ft | 476 kts | 280° |
| 2026-05-04 15:51 | 43.57000 | 86.48592 | 30023 ft | 477 kts | 278° |
| 2026-05-04 15:52 | 43.57953 | 86.39591 | 30016 ft | 478 kts | 277° |
| 2026-05-04 15:52 | 43.58886 | 86.30523 | 30014 ft | 477 kts | 278° |
| 2026-05-04 15:53 | 43.59827 | 86.21465 | 30022 ft | 477 kts | 278° |
| 2026-05-04 15:53 | 43.60766 | 86.12426 | 30028 ft | 476 kts | 278° |
| 2026-05-04 15:54 | 43.61712 | 86.03385 | 30028 ft | 476 kts | 278° |
| 2026-05-04 15:54 | 43.62696 | 85.94418 | 30020 ft | 476 kts | 278° |
| 2026-05-04 15:55 | 43.63675 | 85.85391 | 30024 ft | 475 kts | 278° |
| 2026-05-04 15:55 | 43.64510 | 85.76343 | 30034 ft | 475 kts | 276° |
| 2026-05-04 15:56 | 43.65182 | 85.67319 | 30018 ft | 476 kts | 275° |
| 2026-05-04 15:56 | 43.65865 | 85.58244 | 30022 ft | 476 kts | 276° |
| 2026-05-04 15:57 | 43.66570 | 85.49161 | 30037 ft | 476 kts | 276° |
| 2026-05-04 15:57 | 43.67273 | 85.40073 | 30028 ft | 476 kts | 276° |
| 2026-05-04 15:58 | 43.67971 | 85.30979 | 30034 ft | 476 kts | 276° |
| 2026-05-04 15:58 | 43.68659 | 85.21878 | 30029 ft | 476 kts | 276° |
| 2026-05-04 15:59 | 43.68851 | 85.12856 | 30044 ft | 474 kts | 261° |
| 2026-05-04 15:59 | 43.66709 | 85.04265 | 30045 ft | 476 kts | 240° |
| 2026-05-04 16:00 | 43.63067 | 84.96623 | 30053 ft | 478 kts | 237° |
| 2026-05-04 16:00 | 43.59395 | 84.88957 | 30051 ft | 480 kts | 237° |
| 2026-05-04 16:01 | 43.55778 | 84.81288 | 30044 ft | 481 kts | 238° |
| 2026-05-04 16:01 | 43.52142 | 84.73545 | 30041 ft | 481 kts | 238° |
| 2026-05-04 16:02 | 43.48506 | 84.65821 | 30053 ft | 480 kts | 238° |
| 2026-05-04 16:03 | 43.43078 | 84.54341 | 30060 ft | 478 kts | 237° |
| 2026-05-04 16:03 | 43.39444 | 84.46677 | 30062 ft | 478 kts | 237° |
| 2026-05-04 16:04 | 43.36115 | 84.38830 | 30051 ft | 475 kts | 251° |
| 2026-05-04 16:04 | 43.35085 | 84.29933 | 30072 ft | 475 kts | 272° |
| 2026-05-04 16:04 | 43.35459 | 84.25432 | 30076 ft | 474 kts | 278° |
| 2026-05-04 16:05 | 43.36370 | 84.16478 | 30078 ft | 478 kts | 277° |
| 2026-05-04 16:06 | 43.37632 | 84.02837 | 30076 ft | 481 kts | 276° |
| 2026-05-04 16:07 | 43.39225 | 83.84612 | 30081 ft | 480 kts | 276° |
| 2026-05-04 16:08 | 43.40788 | 83.66485 | 30086 ft | 478 kts | 276° |
| 2026-05-04 16:09 | 43.42702 | 83.43805 | 30089 ft | 478 kts | 276° |
| 2026-05-04 16:10 | 43.43694 | 83.25657 | 30097 ft | 478 kts | 272° |
| 2026-05-04 16:11 | 43.44304 | 83.07382 | 30116 ft | 479 kts | 272° |
| 2026-05-04 16:12 | 43.45229 | 82.79957 | 30118 ft | 480 kts | 272° |
| 2026-05-04 16:13 | 43.45811 | 82.61613 | 30114 ft | 480 kts | 272° |
| 2026-05-04 16:14 | 43.46364 | 82.43361 | 30127 ft | 479 kts | 272° |
| 2026-05-04 16:16 | 43.47010 | 82.20531 | 30133 ft | 479 kts | 272° |
| 2026-05-04 16:17 | 43.47614 | 81.97646 | 30136 ft | 479 kts | 271° |
| 2026-05-04 16:18 | 43.48064 | 81.79376 | 30142 ft | 479 kts | 271° |
| 2026-05-04 16:19 | 43.48576 | 81.56453 | 30146 ft | 480 kts | 271° |
| 2026-05-04 16:20 | 43.49026 | 81.33542 | 30153 ft | 480 kts | 271° |
| 2026-05-04 16:22 | 43.49435 | 81.10547 | 30153 ft | 481 kts | 271° |
| 2026-05-04 16:23 | 43.49864 | 80.83002 | 30158 ft | 481 kts | 271° |
| 2026-05-04 16:25 | 43.50657 | 80.55501 | 30182 ft | 480 kts | 273° |
| 2026-05-04 16:26 | 43.51384 | 80.37071 | 31000 ft | 482 kts | 272° |
| 2026-05-04 16:26 | 43.51870 | 80.23416 | 32069 ft | 479 kts | 272° |
| 2026-05-04 16:28 | 43.52646 | 80.00822 | 32096 ft | 471 kts | 272° |
| 2026-05-04 16:29 | 43.53651 | 79.69277 | 32092 ft | 473 kts | 272° |
| 2026-05-04 16:31 | 43.54311 | 79.46601 | 32093 ft | 474 kts | 272° |
| 2026-05-04 16:32 | 43.55046 | 79.19445 | 32091 ft | 474 kts | 271° |
| 2026-05-04 16:33 | 43.55496 | 79.01354 | 32092 ft | 473 kts | 271° |
| 2026-05-04 16:34 | 43.55817 | 78.87742 | 32091 ft | 474 kts | 271° |
| 2026-05-04 16:35 | 43.56411 | 78.60570 | 32099 ft | 474 kts | 271° |
| 2026-05-04 16:36 | 43.56684 | 78.46950 | 32099 ft | 474 kts | 271° |
| 2026-05-04 16:37 | 43.56942 | 78.33328 | 32102 ft | 474 kts | 271° |
| 2026-05-04 16:38 | 43.57259 | 78.15235 | 32100 ft | 474 kts | 271° |
| 2026-05-04 16:39 | 43.57624 | 77.92607 | 32104 ft | 473 kts | 271° |
| 2026-05-04 16:40 | 43.57894 | 77.74481 | 32110 ft | 473 kts | 270° |
| 2026-05-04 16:41 | 43.58189 | 77.51866 | 32114 ft | 473 kts | 270° |
| 2026-05-04 16:43 | 43.58957 | 77.29164 | 32117 ft | 474 kts | 272° |
| 2026-05-04 16:43 | 43.59413 | 77.15526 | 32126 ft | 475 kts | 272° |
| 2026-05-04 16:45 | 43.59699 | 76.88268 | 32123 ft | 475 kts | 271° |
| 2026-05-04 16:46 | 43.59892 | 76.65547 | 32141 ft | 475 kts | 270° |
| 2026-05-04 16:47 | 43.59960 | 76.47308 | 32116 ft | 475 kts | 270° |
| 2026-05-04 16:48 | 43.60120 | 76.29133 | 32120 ft | 475 kts | 273° |
| 2026-05-04 16:49 | 43.61024 | 76.10957 | 32124 ft | 475 kts | 273° |
| 2026-05-04 16:50 | 43.61870 | 75.92819 | 32127 ft | 475 kts | 273° |
| 2026-05-04 16:51 | 43.62478 | 75.79158 | 32119 ft | 476 kts | 273° |
| 2026-05-04 16:52 | 43.63265 | 75.60948 | 32103 ft | 476 kts | 272° |
| 2026-05-04 16:53 | 43.63833 | 75.47339 | 32109 ft | 476 kts | 272° |
| 2026-05-04 16:54 | 43.64558 | 75.29106 | 32106 ft | 476 kts | 272° |
| 2026-05-04 16:55 | 43.65593 | 75.01776 | 32110 ft | 476 kts | 272° |
| 2026-05-04 16:56 | 43.66401 | 74.79003 | 32101 ft | 476 kts | 272° |
| 2026-05-04 16:57 | 43.66871 | 74.65293 | 32113 ft | 476 kts | 272° |
| 2026-05-04 16:58 | 43.67468 | 74.47017 | 32107 ft | 476 kts | 271° |
| 2026-05-04 17:00 | 43.68307 | 74.19705 | 32099 ft | 475 kts | 271° |
| 2026-05-04 17:01 | 43.68983 | 73.96937 | 32102 ft | 474 kts | 271° |
| 2026-05-04 17:02 | 43.69493 | 73.78780 | 32094 ft | 474 kts | 271° |
| 2026-05-04 17:03 | 43.69221 | 73.65140 | 32105 ft | 473 kts | 265° |
| 2026-05-04 17:03 | 43.68435 | 73.51596 | 32111 ft | 474 kts | 265° |
| 2026-05-04 17:04 | 43.67450 | 73.33404 | 32101 ft | 475 kts | 265° |
| 2026-05-04 17:05 | 43.66466 | 73.15243 | 32088 ft | 476 kts | 265° |
| 2026-05-04 17:06 | 43.65704 | 73.01574 | 32112 ft | 476 kts | 265° |
| 2026-05-04 17:07 | 43.65017 | 72.89443 | 32085 ft | 476 kts | 265° |
| 2026-05-04 17:07 | 43.64402 | 72.78862 | 32097 ft | 476 kts | 265° |
| 2026-05-04 17:08 | 43.63598 | 72.65216 | 32091 ft | 476 kts | 264° |
| 2026-05-04 17:09 | 43.63051 | 72.56115 | 32093 ft | 476 kts | 264° |
| 2026-05-04 17:09 | 43.62498 | 72.47017 | 32085 ft | 476 kts | 264° |
| 2026-05-04 17:10 | 43.61091 | 72.24377 | 32083 ft | 474 kts | 264° |
| 2026-05-04 17:11 | 43.60513 | 72.15310 | 32083 ft | 474 kts | 264° |
| 2026-05-04 17:12 | 43.59636 | 72.01725 | 32083 ft | 474 kts | 264° |
| 2026-05-04 17:13 | 43.58143 | 71.79179 | 32084 ft | 474 kts | 264° |
| 2026-05-04 17:14 | 43.56912 | 71.61068 | 32085 ft | 475 kts | 264° |
| 2026-05-04 17:15 | 43.55971 | 71.47523 | 32075 ft | 475 kts | 264° |
| 2026-05-04 17:16 | 43.54686 | 71.29367 | 32074 ft | 477 kts | 264° |
| 2026-05-04 17:17 | 43.53374 | 71.11224 | 32072 ft | 478 kts | 264° |
| 2026-05-04 17:18 | 43.52024 | 70.92973 | 32065 ft | 479 kts | 264° |
| 2026-05-04 17:19 | 43.50638 | 70.74775 | 32065 ft | 479 kts | 264° |
| 2026-05-04 17:20 | 43.49209 | 70.56509 | 32065 ft | 480 kts | 264° |
| 2026-05-04 17:20 | 43.48119 | 70.42811 | 32065 ft | 480 kts | 264° |
| 2026-05-04 17:21 | 43.46647 | 70.24619 | 32052 ft | 480 kts | 263° |
| 2026-05-04 17:22 | 43.45897 | 70.15489 | 32056 ft | 480 kts | 263° |
| 2026-05-04 17:23 | 43.44380 | 69.97296 | 32047 ft | 480 kts | 263° |
| 2026-05-04 17:24 | 43.43222 | 69.83618 | 32047 ft | 480 kts | 263° |
| 2026-05-04 17:25 | 43.41681 | 69.65422 | 32046 ft | 481 kts | 264° |
| 2026-05-04 17:26 | 43.40158 | 69.47145 | 32034 ft | 481 kts | 264° |
| 2026-05-04 17:27 | 43.38203 | 69.24331 | 32018 ft | 482 kts | 264° |
| 2026-05-04 17:28 | 43.36654 | 69.06022 | 32018 ft | 482 kts | 264° |
| 2026-05-04 17:29 | 43.34374 | 68.78595 | 32018 ft | 483 kts | 264° |
| 2026-05-04 17:31 | 43.32541 | 68.57228 | 32018 ft | 483 kts | 264° |
| 2026-05-04 17:32 | 43.29675 | 68.34537 | 32019 ft | 484 kts | 259° |
| 2026-05-04 17:33 | 43.26311 | 68.16623 | 32017 ft | 485 kts | 256° |
| 2026-05-04 17:34 | 43.22936 | 67.98713 | 32018 ft | 485 kts | 256° |
| 2026-05-04 17:35 | 43.18735 | 67.76415 | 32018 ft | 485 kts | 256° |
| 2026-05-04 17:36 | 43.17042 | 67.67482 | 32019 ft | 484 kts | 256° |
| 2026-05-04 17:36 | 43.15347 | 67.58555 | 32019 ft | 484 kts | 256° |
| 2026-05-04 17:37 | 43.13657 | 67.49695 | 32019 ft | 484 kts | 256° |
| 2026-05-04 17:37 | 43.11947 | 67.40781 | 32019 ft | 484 kts | 256° |
| 2026-05-04 17:38 | 43.10224 | 67.31890 | 32019 ft | 483 kts | 256° |
| 2026-05-04 17:38 | 43.08496 | 67.23002 | 32018 ft | 483 kts | 256° |
| 2026-05-04 17:39 | 43.05908 | 67.09749 | 32018 ft | 483 kts | 256° |
| 2026-05-04 17:39 | 43.04169 | 67.00887 | 32019 ft | 482 kts | 256° |
| 2026-05-04 17:40 | 43.02422 | 66.92033 | 32018 ft | 482 kts | 256° |
| 2026-05-04 17:40 | 43.00670 | 66.83184 | 32015 ft | 482 kts | 256° |
| 2026-05-04 17:41 | 42.98921 | 66.74412 | 32008 ft | 482 kts | 256° |
| 2026-05-04 17:41 | 42.97136 | 66.65591 | 32010 ft | 481 kts | 256° |
| 2026-05-04 17:42 | 42.95350 | 66.56785 | 32009 ft | 481 kts | 256° |
| 2026-05-04 17:42 | 42.93592 | 66.47977 | 32010 ft | 481 kts | 256° |
| 2026-05-04 17:43 | 42.91848 | 66.39234 | 32009 ft | 481 kts | 256° |
| 2026-05-04 17:43 | 42.90085 | 66.30451 | 32010 ft | 480 kts | 256° |
| 2026-05-04 17:44 | 42.88310 | 66.21670 | 32009 ft | 480 kts | 256° |
| 2026-05-04 17:44 | 42.86532 | 66.12897 | 32009 ft | 480 kts | 256° |
| 2026-05-04 17:45 | 42.84729 | 66.04132 | 32004 ft | 480 kts | 255° |
| 2026-05-04 17:45 | 42.82880 | 65.95392 | 32000 ft | 480 kts | 255° |
| 2026-05-04 17:46 | 42.81045 | 65.86724 | 31999 ft | 480 kts | 255° |
| 2026-05-04 17:46 | 42.79198 | 65.78004 | 31999 ft | 479 kts | 255° |
| 2026-05-04 17:47 | 42.77353 | 65.69297 | 31999 ft | 478 kts | 255° |
| 2026-05-04 17:47 | 42.75516 | 65.60599 | 32000 ft | 478 kts | 255° |
| 2026-05-04 17:48 | 42.73686 | 65.51965 | 32001 ft | 478 kts | 255° |
| 2026-05-04 17:48 | 42.71837 | 65.43284 | 31992 ft | 478 kts | 255° |
| 2026-05-04 17:49 | 42.69977 | 65.34597 | 31996 ft | 478 kts | 255° |
| 2026-05-04 17:49 | 42.68112 | 65.25914 | 31993 ft | 478 kts | 254° |
| 2026-05-04 17:50 | 42.66252 | 65.17294 | 31990 ft | 478 kts | 254° |
| 2026-05-04 17:50 | 42.64374 | 65.08624 | 31989 ft | 478 kts | 254° |
| 2026-05-04 17:51 | 42.62491 | 64.99973 | 31994 ft | 478 kts | 254° |
| 2026-05-04 17:51 | 42.60600 | 64.91317 | 31984 ft | 478 kts | 254° |
| 2026-05-04 17:52 | 42.58715 | 64.82721 | 31980 ft | 478 kts | 254° |
| 2026-05-04 17:52 | 42.56812 | 64.74075 | 31980 ft | 478 kts | 254° |
| 2026-05-04 17:53 | 42.54905 | 64.65442 | 31980 ft | 477 kts | 254° |
| 2026-05-04 17:53 | 42.52993 | 64.56830 | 31982 ft | 477 kts | 253° |
| 2026-05-04 17:54 | 42.51073 | 64.48217 | 31983 ft | 477 kts | 253° |
| 2026-05-04 17:54 | 42.49161 | 64.39667 | 31981 ft | 477 kts | 253° |
| 2026-05-04 17:55 | 42.47230 | 64.31068 | 31980 ft | 477 kts | 253° |
| 2026-05-04 17:55 | 42.45294 | 64.22475 | 31981 ft | 477 kts | 253° |
| 2026-05-04 17:56 | 42.43382 | 64.13887 | 31982 ft | 477 kts | 253° |
| 2026-05-04 17:56 | 42.41492 | 64.05344 | 31986 ft | 477 kts | 253° |
| 2026-05-04 17:57 | 42.39567 | 63.96755 | 31982 ft | 477 kts | 253° |
| 2026-05-04 17:57 | 42.37589 | 63.88188 | 31982 ft | 477 kts | 253° |
| 2026-05-04 17:58 | 42.35597 | 63.79630 | 31981 ft | 477 kts | 253° |
| 2026-05-04 17:58 | 42.33607 | 63.71084 | 31977 ft | 477 kts | 253° |
| 2026-05-04 17:59 | 42.31625 | 63.62588 | 31966 ft | 477 kts | 253° |
| 2026-05-04 18:00 | 42.28622 | 63.49770 | 31962 ft | 477 kts | 253° |
| 2026-05-04 18:00 | 42.26612 | 63.41233 | 31954 ft | 477 kts | 252° |
| 2026-05-04 18:01 | 42.24611 | 63.32762 | 31954 ft | 477 kts | 252° |
| 2026-05-04 18:01 | 42.22593 | 63.24255 | 31955 ft | 476 kts | 252° |
| 2026-05-04 18:02 | 42.19553 | 63.11500 | 31955 ft | 476 kts | 252° |
| 2026-05-04 18:02 | 42.17521 | 63.03006 | 31954 ft | 476 kts | 252° |
| 2026-05-04 18:03 | 42.15487 | 62.94519 | 31953 ft | 476 kts | 252° |
| 2026-05-04 18:03 | 42.13474 | 62.86095 | 31953 ft | 475 kts | 252° |
| 2026-05-04 18:04 | 42.11444 | 62.77634 | 31953 ft | 475 kts | 252° |
| 2026-05-04 18:05 | 42.08373 | 62.64953 | 31954 ft | 475 kts | 252° |
| 2026-05-04 18:05 | 42.06336 | 62.56564 | 31953 ft | 474 kts | 252° |
| 2026-05-04 18:06 | 42.03256 | 62.43914 | 31946 ft | 474 kts | 252° |
| 2026-05-04 18:06 | 42.01197 | 62.35499 | 31949 ft | 474 kts | 252° |
| 2026-05-04 18:07 | 41.99133 | 62.27080 | 31940 ft | 474 kts | 252° |
| 2026-05-04 18:07 | 41.97062 | 62.18669 | 31945 ft | 474 kts | 252° |
| 2026-05-04 18:08 | 41.95000 | 62.10321 | 31948 ft | 474 kts | 252° |
| 2026-05-04 18:08 | 41.92916 | 62.01924 | 31939 ft | 474 kts | 252° |
| 2026-05-04 18:09 | 41.88736 | 61.85136 | 31948 ft | 475 kts | 252° |
| 2026-05-04 18:10 | 41.86649 | 61.76792 | 31943 ft | 475 kts | 251° |
| 2026-05-04 18:10 | 41.84532 | 61.68396 | 31945 ft | 475 kts | 251° |
| 2026-05-04 18:11 | 41.82400 | 61.60009 | 31932 ft | 475 kts | 251° |
| 2026-05-04 18:11 | 41.80265 | 61.51636 | 31944 ft | 475 kts | 251° |
| 2026-05-04 18:12 | 41.78124 | 61.43261 | 31949 ft | 475 kts | 251° |
| 2026-05-04 18:12 | 41.75993 | 61.34947 | 31930 ft | 475 kts | 251° |
| 2026-05-04 18:13 | 41.73844 | 61.26594 | 31945 ft | 475 kts | 251° |
| 2026-05-04 18:14 | 41.70608 | 61.14074 | 31945 ft | 474 kts | 251° |
| 2026-05-04 18:14 | 41.68462 | 61.05804 | 31946 ft | 474 kts | 251° |
| 2026-05-04 18:15 | 41.64124 | 60.89174 | 31932 ft | 473 kts | 251° |
| 2026-05-04 18:16 | 41.61950 | 60.80880 | 31934 ft | 473 kts | 251° |
| 2026-05-04 18:16 | 41.59786 | 60.72652 | 31939 ft | 472 kts | 251° |
| 2026-05-04 18:17 | 41.56589 | 60.60223 | 31937 ft | 472 kts | 253° |
| 2026-05-04 18:18 | 41.53735 | 60.47652 | 31934 ft | 471 kts | 253° |
| 2026-05-04 18:18 | 41.51817 | 60.39347 | 31933 ft | 471 kts | 253° |
| 2026-05-04 18:19 | 41.48880 | 60.26837 | 31932 ft | 471 kts | 253° |
| 2026-05-04 18:19 | 41.46914 | 60.18495 | 31942 ft | 472 kts | 253° |
| 2026-05-04 18:20 | 41.44909 | 60.10168 | 31927 ft | 472 kts | 252° |
| 2026-05-04 18:20 | 41.42900 | 60.01905 | 31937 ft | 472 kts | 252° |
| 2026-05-04 18:21 | 41.40878 | 59.93588 | 31938 ft | 472 kts | 252° |
| 2026-05-04 18:21 | 41.38855 | 59.85291 | 31939 ft | 471 kts | 252° |
| 2026-05-04 18:22 | 41.36828 | 59.76997 | 31934 ft | 471 kts | 252° |
| 2026-05-04 18:22 | 41.34818 | 59.68708 | 31930 ft | 470 kts | 255° |
| 2026-05-04 18:23 | 41.33617 | 59.60238 | 31935 ft | 469 kts | 264° |
| 2026-05-04 18:23 | 41.32869 | 59.51623 | 31931 ft | 469 kts | 263° |
| 2026-05-04 18:24 | 41.32088 | 59.43013 | 31937 ft | 469 kts | 263° |
| 2026-05-04 18:24 | 41.31281 | 59.34419 | 31940 ft | 469 kts | 263° |
| 2026-05-04 18:25 | 41.30465 | 59.25876 | 31940 ft | 469 kts | 263° |
| 2026-05-04 18:25 | 41.29639 | 59.17279 | 31930 ft | 468 kts | 263° |
| 2026-05-04 18:26 | 41.28807 | 59.08687 | 31935 ft | 468 kts | 263° |
| 2026-05-04 18:26 | 41.27970 | 59.00099 | 31943 ft | 468 kts | 263° |
| 2026-05-04 18:27 | 41.27127 | 58.91527 | 31940 ft | 468 kts | 263° |
| 2026-05-04 18:27 | 41.26283 | 58.83009 | 31938 ft | 468 kts | 263° |